createdAt,value
2022-08-17T00:01:27.165Z,54.01
2022-08-17T00:03:57.789Z,53.44
2022-08-17T00:06:30.110Z,53.44
2022-08-17T00:09:02.203Z,53.68
2022-08-17T00:11:36.954Z,53.78
2022-08-17T00:14:11.924Z,53.22
2022-08-17T00:16:55.505Z,53.75
2022-08-17T00:19:17.333Z,53.41
2022-08-17T00:22:33.120Z,53.20
2022-08-17T00:24:20.502Z,53.95
2022-08-17T00:26:49.681Z,52.43
2022-08-17T00:29:19.877Z,53.13
2022-08-17T00:31:50.230Z,53.11
2022-08-17T00:34:19.928Z,52.66
2022-08-17T00:36:49.104Z,52.78
2022-08-17T00:39:18.406Z,53.30
2022-08-17T00:41:48.054Z,51.90
2022-08-17T00:44:17.172Z,51.93
2022-08-17T00:46:48.258Z,51.93
2022-08-17T00:49:22.741Z,49.70
2022-08-17T00:51:57.726Z,51.98
2022-08-17T00:54:32.516Z,52.49
2022-08-17T00:57:06.248Z,51.47
2022-08-17T00:59:41.899Z,51.47
2022-08-17T01:02:13.557Z,51.48
2022-08-17T01:04:45.420Z,51.75
2022-08-17T01:07:15.211Z,51.22
2022-08-17T01:09:45.247Z,50.57
2022-08-17T01:12:14.930Z,51.66
2022-08-17T01:14:44.330Z,52.78
2022-08-17T01:17:13.674Z,53.56
2022-08-17T01:19:45.594Z,53.43
2022-08-17T01:22:17.581Z,51.53
2022-08-17T01:24:49.849Z,52.43
2022-08-17T01:27:20.688Z,52.21
2022-08-17T01:29:53.371Z,52.52
2022-08-17T01:32:22.563Z,52.79
2022-08-17T01:34:51.712Z,53.22
2022-08-17T01:37:23.829Z,53.27
2022-08-17T01:39:55.959Z,52.79
2022-08-17T01:42:28.064Z,52.60
2022-08-17T01:45:03.317Z,53.79
2022-08-17T01:47:32.801Z,53.16
2022-08-17T01:50:11.936Z,52.43
2022-08-17T01:52:42.596Z,52.91
2022-08-17T01:55:12.300Z,51.95
2022-08-17T01:57:41.477Z,52.08
2022-08-17T02:00:11.223Z,52.70
2022-08-17T02:02:40.706Z,52.59
2022-08-17T02:05:10.449Z,52.54
2022-08-17T02:07:59.602Z,52.54
2022-08-17T02:10:20.034Z,52.03
2022-08-17T02:12:42.654Z,52.03
2022-08-17T02:15:14.901Z,51.68
2022-08-17T02:17:45.605Z,50.87
2022-08-17T02:20:15.367Z,52.28
2022-08-17T02:22:49.115Z,52.34
2022-08-17T02:25:21.457Z,52.55
2022-08-17T02:27:50.616Z,52.82
2022-08-17T02:31:00.335Z,52.95
2022-08-17T02:32:56.454Z,52.56
2022-08-17T02:35:25.859Z,51.22
2022-08-17T02:37:55.709Z,52.32
2022-08-17T02:40:36.308Z,51.61
2022-08-17T02:42:56.133Z,52.34
2022-08-17T02:45:26.722Z,51.97
2022-08-17T02:47:56.050Z,52.29
2022-08-17T02:50:26.543Z,52.67
2022-08-17T02:53:02.228Z,53.20
2022-08-17T02:55:29.890Z,52.06
2022-08-17T02:57:59.704Z,52.06
2022-08-17T03:00:33.404Z,51.95
2022-08-17T03:03:05.111Z,52.11
2022-08-17T03:05:37.024Z,51.44
2022-08-17T03:08:10.400Z,51.44
2022-08-17T03:10:38.590Z,52.31
2022-08-17T03:13:07.816Z,52.31
2022-08-17T03:15:36.990Z,52.06
2022-08-17T03:18:07.722Z,51.98
2022-08-17T03:20:38.697Z,52.25
2022-08-17T03:23:08.547Z,52.68
2022-08-17T03:25:44.428Z,52.43
2022-08-17T03:28:14.925Z,52.61
2022-08-17T03:30:44.049Z,52.61
2022-08-17T03:33:13.441Z,53.30
2022-08-17T03:35:43.085Z,53.23
2022-08-17T03:38:15.898Z,53.94
2022-08-17T03:40:57.380Z,55.26
2022-08-17T03:43:18.604Z,54.68
2022-08-17T03:46:06.007Z,54.90
2022-08-17T03:48:54.928Z,54.22
2022-08-17T03:51:43.997Z,54.95
2022-08-17T03:54:31.238Z,54.69
2022-08-17T03:57:06.383Z,54.69
2022-08-17T03:59:36.520Z,53.16
2022-08-17T04:02:11.424Z,54.78
2022-08-17T04:04:41.349Z,54.92
2022-08-17T04:07:10.810Z,56.49
2022-08-17T04:09:40.020Z,55.22
2022-08-17T04:12:09.452Z,55.98
2022-08-17T04:14:52.677Z,55.89
2022-08-17T04:17:10.089Z,55.89
2022-08-17T04:19:39.270Z,55.91
2022-08-17T04:22:08.469Z,55.84
2022-08-17T04:24:37.890Z,55.84
2022-08-17T04:27:07.071Z,55.81
2022-08-17T04:29:54.180Z,56.12
2022-08-17T04:32:08.020Z,56.58
2022-08-17T04:34:37.169Z,56.26
2022-08-17T04:37:06.320Z,56.26
2022-08-17T04:39:35.520Z,55.90
2022-08-17T04:42:10.586Z,55.72
2022-08-17T04:44:39.602Z,55.38
2022-08-17T04:47:10.652Z,56.34
2022-08-17T04:49:39.611Z,56.34
2022-08-17T04:52:08.782Z,55.34
2022-08-17T04:54:39.514Z,55.34
2022-08-17T04:57:08.732Z,55.08
2022-08-17T04:59:37.916Z,55.28
2022-08-17T05:02:07.119Z,47.59
2022-08-17T05:04:36.514Z,47.59
2022-08-17T05:07:07.080Z,48.58
2022-08-17T05:09:36.244Z,48.41
2022-08-17T05:12:06.297Z,48.37
2022-08-17T05:14:35.567Z,48.60
2022-08-17T05:17:07.415Z,48.60
2022-08-17T05:19:35.549Z,48.71
2022-08-17T05:22:07.554Z,48.71
2022-08-17T05:24:42.459Z,49.10
2022-08-17T05:27:07.802Z,48.97
2022-08-17T05:29:37.198Z,50.12
2022-08-17T05:32:38.952Z,50.05
2022-08-17T05:34:44.727Z,50.05
2022-08-17T05:37:13.910Z,51.62
2022-08-17T05:39:43.125Z,51.62
2022-08-17T05:42:12.161Z,51.53
2022-08-17T05:44:41.316Z,51.53
2022-08-17T05:47:10.390Z,51.73
2022-08-17T05:49:40.911Z,52.00
2022-08-17T05:52:20.268Z,52.00
2022-08-17T05:55:16.797Z,51.90
2022-08-17T05:58:00.636Z,50.99
2022-08-17T06:00:35.018Z,51.85
2022-08-17T06:03:10.292Z,52.50
2022-08-17T06:06:01.842Z,53.03
2022-08-17T06:08:53.566Z,53.03
2022-08-17T06:11:35.292Z,52.64
2022-08-17T06:14:29.728Z,52.64
2022-08-17T06:17:01.996Z,52.03
2022-08-17T06:19:42.674Z,52.03
2022-08-17T06:22:14.727Z,51.31
2022-08-17T06:24:57.069Z,51.31
2022-08-17T06:27:38.108Z,52.54
2022-08-17T06:30:28.541Z,52.54
2022-08-17T06:33:03.128Z,49.10
2022-08-17T06:35:41.239Z,49.10
2022-08-17T06:38:38.417Z,52.82
2022-08-17T06:41:08.868Z,52.79
2022-08-17T06:43:57.065Z,52.79
2022-08-17T06:46:38.254Z,53.30
2022-08-17T06:49:26.605Z,53.27
2022-08-17T06:51:58.558Z,53.91
2022-08-17T06:54:33.156Z,53.07
2022-08-17T06:57:20.214Z,53.07
2022-08-17T07:00:04.041Z,53.85
2022-08-17T07:02:54.639Z,52.67
2022-08-17T07:05:26.798Z,52.15
2022-08-17T07:08:08.109Z,53.34
2022-08-17T07:10:40.079Z,53.14
2022-08-17T07:13:18.463Z,52.70
2022-08-17T07:15:54.013Z,53.08
2022-08-17T07:18:24.782Z,52.13
2022-08-17T07:20:57.521Z,52.13
2022-08-17T07:23:47.613Z,54.18
2022-08-17T07:26:16.711Z,54.18
2022-08-17T07:28:46.403Z,53.95
2022-08-17T07:31:17.492Z,53.89
2022-08-17T07:33:49.536Z,53.92
2022-08-17T07:36:30.364Z,53.72
2022-08-17T07:38:59.960Z,53.72
2022-08-17T07:41:53.178Z,54.57
2022-08-17T07:44:02.137Z,54.57
2022-08-17T07:46:54.239Z,53.33
2022-08-17T07:49:31.850Z,54.57
2022-08-17T07:52:24.054Z,54.03
2022-08-17T07:54:43.424Z,54.03
2022-08-17T07:57:18.458Z,52.92
2022-08-17T08:00:06.287Z,52.92
2022-08-17T08:02:42.791Z,52.80
2022-08-17T08:05:49.695Z,54.05
2022-08-17T08:08:02.656Z,54.05
2022-08-17T08:10:42.823Z,54.60
2022-08-17T08:13:24.406Z,54.05
2022-08-17T08:15:57.089Z,54.05
2022-08-17T08:18:53.754Z,53.16
2022-08-17T08:21:09.849Z,53.16
2022-08-17T08:23:41.883Z,53.53
2022-08-17T08:26:30.653Z,51.81
2022-08-17T08:29:25.434Z,51.57
2022-08-17T08:32:13.787Z,51.57
2022-08-17T08:35:02.864Z,54.69
2022-08-17T08:37:50.359Z,52.80
2022-08-17T08:40:39.546Z,52.80
2022-08-17T08:43:33.006Z,52.87
2022-08-17T08:46:24.939Z,49.41
2022-08-17T08:49:59.483Z,51.21
2022-08-17T08:52:04.814Z,49.35
2022-08-17T08:54:54.081Z,50.89
2022-08-17T08:57:35.401Z,51.15
2022-08-17T09:00:14.945Z,51.15
2022-08-17T09:03:04.986Z,51.04
2022-08-17T09:05:49.030Z,50.79
2022-08-17T09:08:21.127Z,52.42
2022-08-17T09:11:08.633Z,51.21
2022-08-17T09:14:01.794Z,49.51
2022-08-17T09:16:35.298Z,50.19
2022-08-17T09:19:13.216Z,51.97
2022-08-17T09:21:48.957Z,51.76
2022-08-17T09:24:43.450Z,50.91
2022-08-17T09:27:18.817Z,50.07
2022-08-17T09:29:53.879Z,50.52
2022-08-17T09:32:25.777Z,50.52
2022-08-17T09:34:59.694Z,48.94
2022-08-17T09:37:40.653Z,48.94
2022-08-17T09:40:12.867Z,51.84
2022-08-17T09:42:47.978Z,51.84
2022-08-17T09:45:34.977Z,51.74
2022-08-17T09:48:25.164Z,52.15
2022-08-17T09:51:07.994Z,52.15
2022-08-17T09:53:40.806Z,50.27
2022-08-17T09:56:24.762Z,51.63
2022-08-17T09:59:20.844Z,54.15
2022-08-17T10:01:54.137Z,52.37
2022-08-17T10:05:01.220Z,52.14
2022-08-17T10:07:36.079Z,52.18
2022-08-17T10:10:14.080Z,52.18
2022-08-17T10:13:13.663Z,50.23
2022-08-17T10:15:57.405Z,50.32
2022-08-17T10:18:44.518Z,48.05
2022-08-17T10:21:34.511Z,47.67
2022-08-17T10:24:30.253Z,47.67
2022-08-17T10:27:02.294Z,46.97
2022-08-17T10:29:49.942Z,46.97
2022-08-17T10:32:27.647Z,49.21
2022-08-17T10:35:19.447Z,49.21
2022-08-17T10:38:06.980Z,50.19
2022-08-17T10:41:00.448Z,50.19
2022-08-17T10:43:55.832Z,48.04
2022-08-17T10:46:33.754Z,49.23
2022-08-17T10:49:21.829Z,49.32
2022-08-17T10:51:56.437Z,48.81
2022-08-17T10:54:43.337Z,48.38
2022-08-17T10:57:35.096Z,48.38
2022-08-17T11:00:27.430Z,48.60
2022-08-17T11:02:58.523Z,50.91
2022-08-17T11:05:53.322Z,51.13
2022-08-17T11:08:40.752Z,49.58
2022-08-17T11:11:25.844Z,49.79
2022-08-17T11:14:17.588Z,49.79
2022-08-17T11:17:07.282Z,50.32
2022-08-17T11:19:51.030Z,50.32
2022-08-17T11:22:42.207Z,50.06
2022-08-17T11:25:16.894Z,49.39
2022-08-17T11:27:50.462Z,50.73
2022-08-17T11:30:44.934Z,49.03
2022-08-17T11:33:32.444Z,49.24
2022-08-17T11:36:20.008Z,49.69
2022-08-17T11:38:52.866Z,50.72
2022-08-17T11:41:28.509Z,50.97
2022-08-17T11:44:24.756Z,49.67
2022-08-17T11:47:29.471Z,49.81
2022-08-17T11:50:45.056Z,48.06
2022-08-17T11:53:39.909Z,50.19
2022-08-17T11:56:34.515Z,48.58
2022-08-17T11:59:04.584Z,48.00
2022-08-17T12:01:53.244Z,48.81
2022-08-17T12:04:33.848Z,48.28
2022-08-17T12:07:18.156Z,48.28
2022-08-17T12:09:50.569Z,49.24
2022-08-17T12:12:22.810Z,48.99
2022-08-17T12:15:12.070Z,48.36
2022-08-17T12:17:40.092Z,49.46
2022-08-17T12:20:18.715Z,49.31
2022-08-17T12:23:06.209Z,48.31
2022-08-17T12:25:56.885Z,48.31
2022-08-17T12:28:34.290Z,47.71
2022-08-17T12:31:06.639Z,47.71
2022-08-17T12:33:37.795Z,49.02
2022-08-17T12:36:11.688Z,48.41
2022-08-17T12:38:42.003Z,48.41
2022-08-17T12:41:29.745Z,47.47
2022-08-17T12:44:04.578Z,49.12
2022-08-17T12:46:36.638Z,49.59
2022-08-17T12:49:26.643Z,47.35
2022-08-17T12:52:20.130Z,47.34
2022-08-17T12:54:55.153Z,47.54
2022-08-17T12:57:35.889Z,46.49
2022-08-17T13:00:11.176Z,47.77
2022-08-17T13:02:43.239Z,47.88
2022-08-17T13:05:35.039Z,47.64
2022-08-17T13:08:16.307Z,48.19
2022-08-17T13:10:47.448Z,48.19
2022-08-17T13:13:34.571Z,47.69
2022-08-17T13:16:15.237Z,46.67
2022-08-17T13:18:56.129Z,47.36
2022-08-17T13:21:30.788Z,46.28
2022-08-17T13:24:16.644Z,48.81
2022-08-17T13:27:10.093Z,49.31
2022-08-17T13:29:44.100Z,49.31
2022-08-17T13:32:19.909Z,48.56
2022-08-17T13:35:16.533Z,49.55
2022-08-17T13:37:30.336Z,48.40
2022-08-17T13:40:02.770Z,47.89
2022-08-17T13:42:52.407Z,47.32
2022-08-17T13:45:38.777Z,47.32
2022-08-17T13:48:15.049Z,47.41
2022-08-17T13:50:49.980Z,46.67
2022-08-17T13:53:37.113Z,47.37
2022-08-17T13:56:37.558Z,47.37
2022-08-17T13:59:01.757Z,47.13
2022-08-17T14:01:43.480Z,48.89
2022-08-17T14:04:18.743Z,48.89
2022-08-17T14:07:02.993Z,46.87
2022-08-17T14:09:37.421Z,48.60
2022-08-17T14:12:08.741Z,48.60
2022-08-17T14:14:38.576Z,46.98
2022-08-17T14:17:08.093Z,46.98
2022-08-17T14:19:38.140Z,47.50
2022-08-17T14:22:10.158Z,48.02
2022-08-17T14:24:44.889Z,46.56
2022-08-17T14:27:12.193Z,46.64
2022-08-17T14:29:41.539Z,48.46
2022-08-17T14:32:19.568Z,48.46
2022-08-17T14:34:49.903Z,46.65
2022-08-17T14:37:21.735Z,46.65
2022-08-17T14:39:50.995Z,47.69
2022-08-17T14:42:20.868Z,47.78
2022-08-17T14:44:51.272Z,47.78
2022-08-17T14:47:20.367Z,47.65
2022-08-17T14:49:50.183Z,47.01
2022-08-17T14:52:22.020Z,46.70
2022-08-17T14:54:52.573Z,46.70
2022-08-17T14:57:34.266Z,48.19
2022-08-17T14:59:58.143Z,47.24
2022-08-17T15:02:30.888Z,47.59
2022-08-17T15:05:03.419Z,47.81
2022-08-17T15:07:32.820Z,47.81
2022-08-17T15:10:02.660Z,47.38
2022-08-17T15:12:34.353Z,47.18
2022-08-17T15:15:06.390Z,46.86
2022-08-17T15:17:44.538Z,47.91
2022-08-17T15:20:14.729Z,48.04
2022-08-17T15:22:43.469Z,46.91
2022-08-17T15:25:13.738Z,47.66
2022-08-17T15:27:44.177Z,47.55
2022-08-17T15:30:14.119Z,47.55
2022-08-17T15:32:50.742Z,47.49
2022-08-17T15:35:15.452Z,47.40
2022-08-17T15:37:45.936Z,47.04
2022-08-17T15:40:15.305Z,47.04
2022-08-17T15:42:44.507Z,46.36
2022-08-17T15:45:17.217Z,47.99
2022-08-17T15:47:46.835Z,48.51
2022-08-17T15:50:16.338Z,46.89
2022-08-17T15:52:47.189Z,46.89
2022-08-17T15:55:20.799Z,46.94
2022-08-17T15:57:47.985Z,46.32
2022-08-17T16:00:17.638Z,46.32
2022-08-17T16:03:14.863Z,47.01
2022-08-17T16:05:22.307Z,46.59
2022-08-17T16:07:53.659Z,45.81
2022-08-17T16:10:35.066Z,45.81
2022-08-17T16:12:55.338Z,45.94
2022-08-17T16:15:26.265Z,45.46
2022-08-17T16:17:55.571Z,46.05
2022-08-17T16:20:24.856Z,46.05
2022-08-17T16:22:54.959Z,45.93
2022-08-17T16:25:52.757Z,47.44
2022-08-17T16:28:02.347Z,47.44
2022-08-17T16:30:31.944Z,45.82
2022-08-17T16:33:03.048Z,46.85
2022-08-17T16:35:32.512Z,46.62
2022-08-17T16:38:01.606Z,46.62
2022-08-17T16:40:36.023Z,46.12
2022-08-17T16:43:02.376Z,45.32
2022-08-17T16:45:36.925Z,45.96
2022-08-17T16:48:06.874Z,45.78
2022-08-17T16:50:36.204Z,45.69
2022-08-17T16:53:11.024Z,45.29
2022-08-17T16:55:40.617Z,43.99
2022-08-17T16:58:12.637Z,43.99
2022-08-17T17:00:45.385Z,43.81
2022-08-17T17:03:20.719Z,44.80
2022-08-17T17:06:12.731Z,44.80
2022-08-17T17:08:51.062Z,44.67
2022-08-17T17:11:44.462Z,44.67
2022-08-17T17:14:19.442Z,44.36
2022-08-17T17:17:09.381Z,44.62
2022-08-17T17:19:46.567Z,44.28
2022-08-17T17:22:30.463Z,45.04
2022-08-17T17:25:26.446Z,45.04
2022-08-17T17:28:01.466Z,43.68
2022-08-17T17:30:39.541Z,44.10
2022-08-17T17:33:21.878Z,44.91
2022-08-17T17:35:59.555Z,45.15
2022-08-17T17:38:34.268Z,45.15
2022-08-17T17:41:06.247Z,44.30
2022-08-17T17:43:40.316Z,43.91
2022-08-17T17:46:28.063Z,43.83
2022-08-17T17:48:44.375Z,45.73
2022-08-17T17:52:09.263Z,45.73
2022-08-17T17:54:14.467Z,43.70
2022-08-17T17:56:55.572Z,43.84
2022-08-17T17:59:58.197Z,43.59
2022-08-17T18:02:51.894Z,43.59
2022-08-17T18:05:39.561Z,44.24
2022-08-17T18:08:34.757Z,44.24
2022-08-17T18:11:23.936Z,45.38
2022-08-17T18:13:54.005Z,43.34
2022-08-17T18:16:24.683Z,43.34
2022-08-17T18:18:54.080Z,43.62
2022-08-17T18:21:28.199Z,45.20
2022-08-17T18:24:00.143Z,43.91
2022-08-17T18:26:42.083Z,44.52
2022-08-17T18:29:37.603Z,44.52
2022-08-17T18:32:16.908Z,43.17
2022-08-17T18:34:48.863Z,43.17
2022-08-17T18:37:45.633Z,43.72
2022-08-17T18:40:23.960Z,44.06
2022-08-17T18:43:03.708Z,44.52
2022-08-17T18:45:41.379Z,44.54
2022-08-17T18:48:23.703Z,44.54
2022-08-17T18:50:55.808Z,43.35
2022-08-17T18:53:43.060Z,43.35
2022-08-17T18:56:31.155Z,44.12
2022-08-17T18:59:09.503Z,43.64
2022-08-17T19:01:52.469Z,43.05
2022-08-17T19:04:18.503Z,43.05
2022-08-17T19:06:47.921Z,43.15
2022-08-17T19:09:20.191Z,43.65
2022-08-17T19:11:49.696Z,43.01
2022-08-17T19:14:22.565Z,42.37
2022-08-17T19:16:54.772Z,42.37
2022-08-17T19:19:44.980Z,42.82
2022-08-17T19:22:27.008Z,43.42
2022-08-17T19:24:56.275Z,43.42
2022-08-17T19:27:27.129Z,44.26
2022-08-17T19:30:07.819Z,43.88
2022-08-17T19:32:36.343Z,43.95
2022-08-17T19:35:11.426Z,43.62
2022-08-17T19:38:13.296Z,43.79
2022-08-17T19:41:04.057Z,44.02
2022-08-17T19:43:48.556Z,44.24
2022-08-17T19:46:26.368Z,44.03
2022-08-17T19:49:18.855Z,44.44
2022-08-17T19:51:50.780Z,43.56
2022-08-17T19:54:43.920Z,43.56
2022-08-17T19:57:45.051Z,43.61
2022-08-17T20:00:16.991Z,43.14
2022-08-17T20:02:54.799Z,43.14
2022-08-17T20:05:27.271Z,44.00
2022-08-17T20:08:07.813Z,43.63
2022-08-17T20:10:57.930Z,43.63
2022-08-17T20:13:46.474Z,43.45
2022-08-17T20:16:17.346Z,43.15
2022-08-17T20:18:58.506Z,43.46
2022-08-17T20:21:39.786Z,43.46
2022-08-17T20:24:34.801Z,43.46
2022-08-17T20:27:31.593Z,43.68
2022-08-17T20:30:05.937Z,43.14
2022-08-17T20:32:55.743Z,43.12
2022-08-17T20:35:33.854Z,42.67
2022-08-17T20:38:08.960Z,43.02
2022-08-17T20:40:59.981Z,43.02
2022-08-17T20:43:37.832Z,43.09
2022-08-17T20:46:18.555Z,43.09
2022-08-17T20:48:50.889Z,42.00
2022-08-17T20:51:27.490Z,42.15
2022-08-17T20:53:59.874Z,42.64
2022-08-17T20:56:50.187Z,42.64
2022-08-17T20:59:28.805Z,42.78
2022-08-17T21:02:18.982Z,42.94
2022-08-17T21:04:55.269Z,41.91
2022-08-17T21:07:42.596Z,43.22
2022-08-17T21:10:24.969Z,43.22
2022-08-17T21:13:16.933Z,42.71
2022-08-17T21:15:49.097Z,42.71
2022-08-17T21:18:39.392Z,42.28
2022-08-17T21:21:24.330Z,42.79
2022-08-17T21:24:16.591Z,42.54
2022-08-17T21:26:56.369Z,42.40
2022-08-17T21:29:31.310Z,42.27
2022-08-17T21:32:09.106Z,42.27
2022-08-17T21:34:44.104Z,41.68
2022-08-17T21:37:25.376Z,41.72
2022-08-17T21:39:58.342Z,42.21
2022-08-17T21:42:31.563Z,41.40
2022-08-17T21:45:12.964Z,41.76
2022-08-17T21:47:43.870Z,41.59
2022-08-17T21:50:19.733Z,41.01
2022-08-17T21:52:50.238Z,40.52
2022-08-17T21:55:26.829Z,41.98
2022-08-17T21:58:14.388Z,42.01
2022-08-17T22:00:33.169Z,41.83
2022-08-17T22:03:05.271Z,40.39
2022-08-17T22:05:40.011Z,41.83
2022-08-17T22:08:16.595Z,41.70
2022-08-17T22:10:46.921Z,41.78
2022-08-17T22:13:29.315Z,41.37
2022-08-17T22:16:28.547Z,40.96
2022-08-17T22:18:53.583Z,40.48
2022-08-17T22:21:24.641Z,41.82
2022-08-17T22:24:09.219Z,41.87
2022-08-17T22:27:01.137Z,41.87
2022-08-17T22:29:45.633Z,41.33
2022-08-17T22:32:33.952Z,42.45
2022-08-17T22:35:37.974Z,41.81
2022-08-17T22:38:22.813Z,42.38
2022-08-17T22:40:55.054Z,41.57
2022-08-17T22:43:28.975Z,41.81
2022-08-17T22:46:01.137Z,41.81
2022-08-17T22:48:31.597Z,41.62
2022-08-17T22:51:15.239Z,41.62
2022-08-17T22:54:08.362Z,41.32
2022-08-17T22:56:56.227Z,41.42
2022-08-17T22:59:46.664Z,40.95
2022-08-17T23:02:31.240Z,41.06
2022-08-17T23:05:17.603Z,40.60
2022-08-17T23:07:48.308Z,41.55
2022-08-17T23:10:17.822Z,41.10
2022-08-17T23:12:47.025Z,41.49
2022-08-17T23:15:19.525Z,41.81
2022-08-17T23:17:48.589Z,41.81
2022-08-17T23:20:18.204Z,41.28
2022-08-17T23:22:52.325Z,41.16
2022-08-17T23:25:22.784Z,41.66
2022-08-17T23:27:52.104Z,41.38
2022-08-17T23:30:23.317Z,41.76
2022-08-17T23:32:54.976Z,41.76
2022-08-17T23:35:40.066Z,41.18
2022-08-17T23:38:02.013Z,41.77
2022-08-17T23:40:32.481Z,41.07
2022-08-17T23:44:37.117Z,41.96
2022-08-17T23:45:32.763Z,42.11
2022-08-17T23:48:03.460Z,42.11
2022-08-17T23:50:32.997Z,41.50
2022-08-17T23:53:03.616Z,41.38
2022-08-17T23:55:34.516Z,41.44
2022-08-17T23:58:05.881Z,42.16
